Myrtle Point, OR

3:33 AM PDT on August 29, 2016 (GMT -0700)
KORMYRTL11 | | Change Station

Elev 250 ft 42.97 °N, 124.01 °W | Updated 2 days ago

Mostly Cloudy
Mostly Cloudy
51 °F
Feels Like 51 °F
N
1
Wind Variable Wind from SSW
Gusts mph

Today
High -- | Low -- °F
--% Chance of Precip.
Yesterday
High -- | Low -- °F
Precip. -- in
Pressure 30.12 in
Visibility 8.0 miles
Clouds Overcast 500 ft
Dew Point 49 °F
Humidity 91%
Rainfall in
Snow Depth Not available.
6:37 AM 7:54 PM
Waning Crescent, 9% visible
METAR KOTH 291015Z 00000KT 8SM OVC005 12/12 A3012 RMK AO1
Pressure 30.12 in
Visibility 8.0 miles
Clouds Overcast 500 ft
Dew Point 49 °F
Humidity 91%
Rainfall in
Snow Depth Not available.
6:37 AM 7:54 PM
Waning Crescent, 9% visible
METAR KOTH 291015Z 00000KT 8SM OVC005 12/12 A3012 RMK AO1

10-Day Weather Forecast

Almanac

Astronomy

Aug. 29, 2016 Rise Set
Actual Time
Civil Twilight
Nautical Twilight
Astronomical Twilight
Moon
Length of Visible Light
Length of Day
Tomorrow will be .
, % of the Moon is Illuminated

Today's Extremes

State Highs State Lows

Community

WunderPhotos

Upload Photos

1,935,802 photos uploaded!

WunderBlog® & News

Nearby

Air Quality

  Air Quality AQ Index Pollutant
Not available.

Snow Depth

Station Depth Elevation

Earthquake Activity

City Distance Mag. Time & Date
Minimum magnitude displayed is 2.5.

Coastal Water Temperatures

Place Temperature

Stations

Nearby Weather Stations

Station Location Temp. Windchill Dew Point Humidity Wind Precip. Elev Updated Type
                   

Watches & Warnings

There are currently no watches in effect.